Time;durP1;ratioP1;P1;durP2;ratioP2;P2;SDS_P1;SDS_P2;PMS_P1;PMS_P2;Temp;Humidity;BMP_temperature;BMP_pressure;BME280_temperature;BME280_humidity;BME280_pressure;Samples;Min_cycle;Max_cycle;Signal;HPM_P1;HPM_P2
2021/10/09 00:00:36;;;;;;;;;;;9.60;99.90;;;;;;5108072;27;20596;-75
2021/10/09 00:03:02;;;;;;;;;;;9.50;99.90;;;;;;5108935;28;19930;-75
2021/10/09 00:05:29;;;;;;;;;;;9.40;99.90;;;;;;5113322;27;19930;-75
2021/10/09 00:07:56;;;;;;;;;;;9.40;99.90;;;;;;5099500;28;19946;-75
2021/10/09 00:10:27;;;;;;;;;;;9.40;99.90;;;;;;5104695;27;19924;-75
2021/10/09 00:12:53;;;;;;;;;;;9.40;99.90;;;;;;5108017;27;20286;-75
2021/10/09 00:15:21;;;;;;;;;;;9.30;99.90;;;;;;5112148;27;19957;-75
2021/10/09 00:17:49;;;;;;;;;;;9.30;99.90;;;;;;5123563;27;19986;-76
2021/10/09 00:20:16;;;;;;;;;;;9.20;99.90;;;;;;5102338;27;19941;-76
2021/10/09 00:22:42;;;;;;;;;;;9.20;99.90;;;;;;5110790;27;20018;-76
2021/10/09 00:25:09;;;;;;;;;;;9.20;99.90;;;;;;5110984;27;20032;-76
2021/10/09 00:27:36;;;;;;;;;;;9.20;99.90;;;;;;5101810;27;19952;-76
2021/10/09 00:30:03;;;;;;;;;;;9.20;99.90;;;;;;5115636;27;19952;-76
2021/10/09 00:32:30;;;;;;;;;;;9.20;99.90;;;;;;5113963;27;19946;-75
2021/10/09 00:34:58;;;;;;;;;;;9.30;99.90;;;;;;5120858;27;19943;-75
2021/10/09 00:37:25;;;;;;;;;;;9.30;99.90;;;;;;5110967;28;19942;-74
2021/10/09 00:39:51;;;;;;;;;;;9.20;99.90;;;;;;5109149;27;20047;-74
2021/10/09 00:42:18;;;;;;;;;;;9.30;99.90;;;;;;5108864;27;20058;-75
2021/10/09 00:44:45;;;;;;;;;;;9.20;99.90;;;;;;5109654;27;20019;-75
2021/10/09 00:47:11;;;;;;;;;;;9.20;99.90;;;;;;5107007;27;20491;-75
2021/10/09 00:49:38;;;;;;;;;;;9.20;99.90;;;;;;5099300;28;19949;-76
2021/10/09 00:52:06;;;;;;;;;;;9.20;99.90;;;;;;5101504;28;19964;-75
2021/10/09 00:54:34;;;;;;;;;;;9.20;99.90;;;;;;5104460;27;19924;-75
2021/10/09 00:57:01;;;;;;;;;;;9.20;99.90;;;;;;5095385;27;19950;-75
2021/10/09 00:59:29;;;;;;;;;;;9.10;99.90;;;;;;5103325;27;19924;-75
2021/10/09 01:01:55;;;;;;;;;;;9.10;99.90;;;;;;5094564;28;20017;-75
2021/10/09 01:04:22;;;;;;;;;;;9.10;99.90;;;;;;5104736;27;19963;-75
2021/10/09 01:06:49;;;;;;;;;;;9.10;99.90;;;;;;5100989;28;20011;-75
2021/10/09 01:09:17;;;;;;;;;;;9.10;99.90;;;;;;5108465;27;19923;-75
2021/10/09 01:11:44;;;;;;;;;;;9.10;99.90;;;;;;5106280;27;19930;-74
2021/10/09 01:14:11;;;;;;;;;;;9.10;99.90;;;;;;5106620;27;19998;-75
2021/10/09 01:16:38;;;;;;;;;;;9.10;99.90;;;;;;5107123;27;19940;-75
2021/10/09 01:19:06;;;;;;;;;;;9.10;99.90;;;;;;5094119;28;19953;-75
2021/10/09 01:21:40;;;;;;;;;;;9.10;99.90;;;;;;5108814;27;20130;-75
2021/10/09 01:24:07;;;;;;;;;;;9.10;99.90;;;;;;5101562;27;19928;-75
2021/10/09 01:26:34;;;;;;;;;;;9.10;99.90;;;;;;5108961;28;19946;-76
2021/10/09 01:29:00;;;;;;;;;;;9.10;99.90;;;;;;5108436;28;20431;-76
2021/10/09 01:31:27;;;;;;;;;;;9.10;99.90;;;;;;5110173;28;20338;-77
2021/10/09 01:33:54;;;;;;;;;;;9.10;99.90;;;;;;5112373;28;19938;-75
2021/10/09 01:36:21;;;;;;;;;;;9.00;99.90;;;;;;5112542;28;19944;-76
2021/10/09 01:38:52;;;;;;;;;;;9.00;99.90;;;;;;5117273;28;20342;-75
2021/10/09 01:41:19;;;;;;;;;;;9.00;99.90;;;;;;5106573;28;19941;-74
2021/10/09 01:43:46;;;;;;;;;;;9.00;99.90;;;;;;5107941;28;20489;-74
2021/10/09 01:46:13;;;;;;;;;;;9.00;99.90;;;;;;5107457;28;20433;-74
2021/10/09 01:48:40;;;;;;;;;;;9.00;99.90;;;;;;5116631;28;19948;-74
2021/10/09 01:51:07;;;;;;;;;;;8.90;99.90;;;;;;5107489;28;19959;-74
2021/10/09 01:53:34;;;;;;;;;;;8.90;99.90;;;;;;5103657;28;20020;-74
2021/10/09 01:56:02;;;;;;;;;;;8.90;99.90;;;;;;5100648;28;19934;-74
2021/10/09 01:58:28;;;;;;;;;;;8.90;99.90;;;;;;5114632;28;19962;-74
2021/10/09 02:00:55;;;;;;;;;;;8.90;99.90;;;;;;5105209;28;19941;-74
2021/10/09 02:03:22;;;;;;;;;;;8.90;99.90;;;;;;5106814;28;20455;-74
2021/10/09 02:05:48;;;;;;;;;;;8.80;99.90;;;;;;5108290;28;20413;-74
2021/10/09 02:08:15;;;;;;;;;;;8.90;99.90;;;;;;5094947;28;19939;-74
2021/10/09 02:10:49;;;;;;;;;;;8.90;99.90;;;;;;5103525;27;19955;-74
2021/10/09 02:13:21;;;;;;;;;;;8.80;99.90;;;;;;5113347;27;19932;-74
2021/10/09 02:15:51;;;;;;;;;;;8.80;99.90;;;;;;5105682;27;19934;-74
2021/10/09 02:18:37;;;;;;;;;;;8.80;99.90;;;;;;5114248;27;20026;-74
2021/10/09 02:26:47;;;;;;;;;;;8.70;99.90;;;;;;5022168;28;20372;-74
2021/10/09 02:29:15;;;;;;;;;;;8.70;99.90;;;;;;5022535;28;19940;-74
2021/10/09 02:31:42;;;;;;;;;;;8.70;99.90;;;;;;5062775;27;21641;-74
2021/10/09 02:34:09;;;;;;;;;;;8.70;99.90;;;;;;5103458;27;20094;-74
2021/10/09 02:36:35;;;;;;;;;;;8.70;99.90;;;;;;5105967;27;20041;-74
2021/10/09 02:39:02;;;;;;;;;;;8.60;99.90;;;;;;5095598;28;20393;-74
2021/10/09 02:41:29;;;;;;;;;;;8.60;99.90;;;;;;5118319;27;20290;-74
2021/10/09 02:43:55;;;;;;;;;;;8.50;99.90;;;;;;5111539;27;19956;-74
2021/10/09 02:46:23;;;;;;;;;;;8.50;99.90;;;;;;5109267;27;20030;-74
2021/10/09 02:48:50;;;;;;;;;;;8.40;99.90;;;;;;5104072;27;19930;-74
2021/10/09 02:51:17;;;;;;;;;;;8.40;99.90;;;;;;5113562;27;20018;-74
2021/10/09 02:53:43;;;;;;;;;;;8.50;99.90;;;;;;5111694;27;19979;-75
2021/10/09 02:56:10;;;;;;;;;;;8.40;99.90;;;;;;5110731;27;19932;-75
2021/10/09 02:58:36;;;;;;;;;;;8.40;99.90;;;;;;5096543;28;19930;-75
2021/10/09 03:01:03;;;;;;;;;;;8.40;99.90;;;;;;5104790;27;19937;-74
2021/10/09 03:03:31;;;;;;;;;;;8.50;99.90;;;;;;5116616;27;20432;-74
2021/10/09 03:05:58;;;;;;;;;;;8.50;99.90;;;;;;5111535;27;19980;-74
2021/10/09 03:08:24;;;;;;;;;;;8.40;99.90;;;;;;5116089;27;19941;-75
2021/10/09 03:10:51;;;;;;;;;;;8.40;99.90;;;;;;5113922;27;19951;-74
2021/10/09 03:13:18;;;;;;;;;;;8.30;99.90;;;;;;5111462;27;19923;-74
2021/10/09 03:15:44;;;;;;;;;;;8.30;99.90;;;;;;5112307;27;19923;-74
2021/10/09 03:18:11;;;;;;;;;;;8.30;99.90;;;;;;5117948;27;20339;-74
2021/10/09 03:20:39;;;;;;;;;;;8.30;99.90;;;;;;5113395;27;19924;-74
2021/10/09 03:23:06;;;;;;;;;;;8.30;99.90;;;;;;5109803;27;19966;-74
2021/10/09 03:25:32;;;;;;;;;;;8.30;99.90;;;;;;5111905;27;19936;-74
2021/10/09 03:27:59;;;;;;;;;;;8.20;99.90;;;;;;5112373;27;19941;-74
2021/10/09 03:30:26;;;;;;;;;;;8.20;99.90;;;;;;5110290;27;19980;-73
2021/10/09 03:32:52;;;;;;;;;;;8.20;99.90;;;;;;5116026;27;19967;-73
2021/10/09 03:35:19;;;;;;;;;;;8.20;99.90;;;;;;5101069;28;20010;-74
2021/10/09 03:37:47;;;;;;;;;;;8.20;99.90;;;;;;5113319;27;19924;-74
2021/10/09 03:40:16;;;;;;;;;;;8.20;99.90;;;;;;5108985;27;19924;-74
2021/10/09 03:42:46;;;;;;;;;;;8.20;99.90;;;;;;5117659;27;19924;-75
2021/10/09 03:45:18;;;;;;;;;;;8.10;99.90;;;;;;5117716;27;19927;-74
2021/10/09 03:48:00;;;;;;;;;;;8.00;99.90;;;;;;5110967;27;19924;-74
2021/10/09 03:52:23;;;;;;;;;;;8.00;99.90;;;;;;5102565;27;20259;-74
2021/10/09 03:53:22;;;;;;;;;;;7.90;99.90;;;;;;5107083;27;19932;-74
2021/10/09 03:55:49;;;;;;;;;;;7.90;99.90;;;;;;5118358;27;20305;-74
2021/10/09 03:58:16;;;;;;;;;;;7.80;99.90;;;;;;5116304;27;19967;-74
2021/10/09 04:00:42;;;;;;;;;;;7.80;99.90;;;;;;5109681;27;19974;-74
2021/10/09 04:03:09;;;;;;;;;;;7.70;99.90;;;;;;5119994;27;20022;-74
2021/10/09 04:05:36;;;;;;;;;;;7.60;99.90;;;;;;5110465;27;20018;-74
2021/10/09 04:08:05;;;;;;;;;;;7.50;99.90;;;;;;5101491;28;19960;-74
2021/10/09 04:10:33;;;;;;;;;;;7.50;99.90;;;;;;5110317;27;19968;-75
2021/10/09 04:12:59;;;;;;;;;;;7.40;99.90;;;;;;5114553;27;19936;-74
2021/10/09 04:15:26;;;;;;;;;;;7.40;99.90;;;;;;5109579;27;19920;-74
2021/10/09 04:17:53;;;;;;;;;;;7.30;99.90;;;;;;5106511;28;19919;-74
2021/10/09 04:20:19;;;;;;;;;;;7.40;99.90;;;;;;5104005;28;20346;-74
2021/10/09 04:22:46;;;;;;;;;;;7.20;99.90;;;;;;5110401;27;19926;-74
2021/10/09 04:25:13;;;;;;;;;;;7.30;99.90;;;;;;5104982;27;19924;-74
2021/10/09 04:27:41;;;;;;;;;;;7.30;99.90;;;;;;5114480;27;20010;-75
2021/10/09 04:30:08;;;;;;;;;;;7.40;99.90;;;;;;5111289;27;20593;-74
2021/10/09 04:32:35;;;;;;;;;;;7.40;99.90;;;;;;5107140;27;20373;-74
2021/10/09 04:35:02;;;;;;;978.15;851.05;;;7.30;99.90;;;;;;5109442;27;20486;-74
2021/10/09 04:37:28;;;;;;;;;;;7.30;99.90;;;;;;5104990;28;20207;-74
2021/10/09 04:39:55;;;;;;;624.55;579.65;;;7.40;99.90;;;;;;5099533;27;20569;-74
2021/10/09 04:42:22;;;;;;;297.60;280.13;;;7.30;99.90;;;;;;5108180;27;20214;-74
2021/10/09 04:44:50;;;;;;;244.90;232.63;;;7.30;99.90;;;;;;5091834;28;20208;-73
2021/10/09 04:47:17;;;;;;;215.17;204.67;;;7.30;99.90;;;;;;5107777;27;20223;-74
2021/10/09 04:49:44;;;;;;;235.07;221.00;;;7.40;99.90;;;;;;5124188;27;20596;-74
2021/10/09 04:52:11;;;;;;;;;;;7.40;99.90;;;;;;5115316;27;20323;-74
2021/10/09 04:54:37;;;;;;;;;;;7.50;99.90;;;;;;5113131;27;19923;-74
2021/10/09 04:57:04;;;;;;;;;;;7.50;99.90;;;;;;5113029;28;19928;-74
2021/10/09 04:59:31;;;;;;;;;;;7.60;99.90;;;;;;5104704;27;19924;-74
2021/10/09 05:01:59;;;;;;;;;;;7.60;99.90;;;;;;5109054;27;19932;-74
2021/10/09 05:04:25;;;;;;;;;;;7.60;99.90;;;;;;5101836;28;19924;-74
2021/10/09 05:06:52;;;;;;;;;;;7.60;99.90;;;;;;5106059;27;19924;-74
2021/10/09 05:09:19;;;;;;;620.17;574.72;;;7.60;99.90;;;;;;5098885;28;20499;-75
2021/10/09 05:11:46;;;;;;;580.07;538.07;;;7.50;99.90;;;;;;5108417;27;20242;-74
2021/10/09 05:14:12;;;;;;;382.50;361.17;;;7.50;99.90;;;;;;5098545;28;20206;-75
2021/10/09 05:16:39;;;;;;;351.17;332.70;;;7.50;99.90;;;;;;5103143;28;20688;-74
2021/10/09 05:19:08;;;;;;;238.63;226.90;;;7.40;99.90;;;;;;5103907;28;20211;-74
2021/10/09 05:21:34;;;;;;;186.30;177.40;;;7.30;99.90;;;;;;5109283;27;20213;-74
2021/10/09 05:24:01;;;;;;;105.90;100.50;;;7.40;99.90;;;;;;5095676;27;20310;-74
2021/10/09 05:26:28;;;;;;;;;;;7.30;99.90;;;;;;5099267;28;20470;-75
2021/10/09 05:28:55;;;;;;;;;;;7.40;99.90;;;;;;5098998;28;20364;-75
2021/10/09 05:31:24;;;;;;;;;;;7.50;99.90;;;;;;5102776;28;19983;-74
2021/10/09 05:33:51;;;;;;;;;;;7.50;99.90;;;;;;5101894;28;19958;-75
2021/10/09 05:36:19;;;;;;;;;;;7.50;99.90;;;;;;5104432;28;19928;-74
2021/10/09 05:38:46;;;;;;;;;;;7.50;99.90;;;;;;5100964;28;19974;-74
2021/10/09 05:41:13;;;;;;;;;;;7.50;99.90;;;;;;5094798;28;19934;-75
2021/10/09 05:43:39;;;;;;;;;;;7.50;99.90;;;;;;5106278;28;19928;-75
2021/10/09 05:46:06;;;;;;;;;;;7.50;99.90;;;;;;5103845;27;19924;-76
2021/10/09 05:48:35;;;;;;;;;;;7.50;99.90;;;;;;5114937;27;19965;-73
2021/10/09 05:51:05;;;;;;;;;;;7.50;99.90;;;;;;5100316;28;20463;-74
2021/10/09 05:53:47;;;;;;;;;;;7.50;99.90;;;;;;5108234;27;19986;-74
2021/10/09 05:56:22;;;;;;;;;;;7.40;99.90;;;;;;5106130;27;20043;-74
2021/10/09 05:58:55;;;;;;;;;;;7.40;99.90;;;;;;5106568;27;19931;-74
2021/10/09 06:31:03;;;;;;;;;;;7.30;99.90;;;;;;5106086;27;20403;-75
2021/10/09 06:37:46;;;;;;;;;;;7.50;99.90;;;;;;5109259;27;19944;-75
2021/10/09 06:43:17;;;;;;;;;;;7.50;99.90;;;;;;5108268;27;19954;-74
2021/10/09 06:49:05;;;;;;;;;;;7.60;99.90;;;;;;5100770;27;20039;-74
2021/10/09 06:59:48;;;;;;;;;;;7.70;99.90;;;;;;5059969;28;19927;-74
2021/10/09 07:02:16;;;;;;;;;;;7.70;99.90;;;;;;5107085;27;19946;-74
2021/10/09 07:04:42;;;;;;;;;;;7.70;99.90;;;;;;5106527;27;19968;-74
2021/10/09 07:07:15;;;;;;;;;;;7.80;99.90;;;;;;5103375;28;20339;-74
2021/10/09 07:09:42;;;;;;;;;;;7.80;99.90;;;;;;5097174;27;19924;-73
2021/10/09 07:12:08;;;;;;;;;;;7.90;99.90;;;;;;5102833;27;20054;-73
2021/10/09 07:14:35;;;;;;;;;;;7.90;99.90;;;;;;5103947;27;19924;-72
2021/10/09 07:17:03;;;;;;;;;;;7.90;99.90;;;;;;5102377;28;19932;-73
2021/10/09 07:19:30;;;;;;;;;;;7.80;99.90;;;;;;5107713;27;19954;-73
2021/10/09 07:21:56;;;;;;;;;;;7.80;99.90;;;;;;5101977;27;19930;-73
2021/10/09 07:24:23;;;;;;;;;;;7.80;99.90;;;;;;5110291;27;20006;-73
2021/10/09 07:26:50;;;;;;;;;;;7.80;99.90;;;;;;5108270;28;20019;-74
2021/10/09 07:29:16;;;;;;;;;;;7.90;99.90;;;;;;5110274;27;20363;-73
2021/10/09 07:31:43;;;;;;;;;;;8.00;99.90;;;;;;5101216;28;19931;-74
2021/10/09 07:34:11;;;;;;;;;;;7.90;99.90;;;;;;5100312;28;20007;-75
2021/10/09 07:36:38;;;;;;;;;;;8.00;99.90;;;;;;5106720;27;19963;-73
2021/10/09 07:39:05;;;;;;;;;;;8.00;99.90;;;;;;5099362;28;19930;-73
2021/10/09 07:41:31;;;;;;;;;;;8.20;99.90;;;;;;5096473;28;20006;-73
2021/10/09 07:43:58;;;;;;;;;;;8.20;99.90;;;;;;5098860;28;20002;-73
2021/10/09 07:46:25;;;;;;;;;;;8.30;99.90;;;;;;5097989;28;19924;-73
2021/10/09 07:48:51;;;;;;;;;;;8.20;99.90;;;;;;5106450;28;19954;-73
2021/10/09 07:51:19;;;;;;;;;;;8.30;99.90;;;;;;5098662;27;19963;-73
2021/10/09 07:53:46;;;;;;;;;;;8.40;99.90;;;;;;5095778;28;20282;-72
2021/10/09 07:56:13;;;;;;;;;;;8.30;99.90;;;;;;5103544;27;20371;-74
2021/10/09 07:58:39;;;;;;;;;;;8.30;99.90;;;;;;5103708;27;20371;-74
2021/10/09 08:01:06;;;;;;;;;;;8.30;99.90;;;;;;5103178;27;19930;-73
2021/10/09 08:03:33;;;;;;;;;;;8.30;99.90;;;;;;5107146;28;19923;-73
2021/10/09 08:05:59;;;;;;;;;;;8.30;99.90;;;;;;5109744;27;19924;-73
2021/10/09 08:08:27;;;;;;;;;;;8.40;99.90;;;;;;5099881;28;20073;-74
2021/10/09 08:10:54;;;;;;;;;;;8.30;99.90;;;;;;5100507;27;20024;-72
2021/10/09 08:13:21;;;;;;;;;;;8.50;99.90;;;;;;5103674;27;20016;-74
2021/10/09 08:15:47;;;;;;;;;;;8.50;99.90;;;;;;5106344;27;20469;-73
2021/10/09 08:18:14;;;;;;;;;;;8.80;99.90;;;;;;5109569;27;19939;-74
2021/10/09 08:20:43;;;;;;;;;;;8.90;99.90;;;;;;5105081;27;19932;-74
2021/10/09 08:23:12;;;;;;;;;;;9.00;99.90;;;;;;5105817;27;19928;-74
2021/10/09 08:36:38;;;;;;;;;;;8.80;99.90;;;;;;5093073;28;19935;-73
2021/10/09 08:39:04;;;;;;;;;;;8.90;99.90;;;;;;5097729;27;20328;-75
2021/10/09 08:41:33;;;;;;;;;;;9.00;99.90;;;;;;5092216;27;19978;-74
2021/10/09 08:43:59;;;;;;;;;;;9.00;99.90;;;;;;5097501;28;19962;-74
2021/10/09 08:46:26;;;;;;;;;;;9.20;99.90;;;;;;5095379;27;20010;-74
2021/10/09 08:48:53;;;;;;;;;;;9.60;99.90;;;;;;5097808;27;19989;-75
2021/10/09 08:51:21;;;;;;;;;;;9.70;99.90;;;;;;5094568;27;20370;-74
2021/10/09 08:53:48;;;;;;;;;;;9.40;99.90;;;;;;5091139;27;19931;-74
2021/10/09 08:56:28;;;;;;;;;;;9.60;99.90;;;;;;5095856;27;19924;-73
2021/10/09 08:59:09;;;;;;;;;;;9.80;99.90;;;;;;5097935;27;19932;-74
2021/10/09 09:01:54;;;;;;;;;;;9.60;99.90;;;;;;5101724;27;19931;-74
2021/10/09 09:32:37;;;;;;;539.97;502.27;;;11.10;99.90;;;;;;5029198;28;20317;-74
2021/10/09 09:35:19;;;;;;;503.95;464.80;;;11.20;99.90;;;;;;5088375;28;20268;-73
2021/10/09 09:40:37;;;;;;;;;;;11.10;99.90;;;;;;5104531;28;19977;-74
2021/10/09 09:43:04;;;;;;;;;;;11.50;99.90;;;;;;5100979;28;20014;-75
2021/10/09 09:45:31;;;;;;;;;;;11.60;99.90;;;;;;5090787;28;20421;-74
2021/10/09 09:47:59;;;;;;;;;;;11.90;99.90;;;;;;5101880;28;20346;-75
2021/10/09 09:50:28;;;;;;;;;;;12.00;99.90;;;;;;5113342;28;20021;-74
2021/10/09 09:52:55;;;;;;;;;;;11.90;99.90;;;;;;5094498;28;20021;-75
2021/10/09 09:55:22;;;;;;;;;;;11.60;99.90;;;;;;5095412;28;19936;-74
2021/10/09 09:57:49;;;;;;;;;;;11.40;99.90;;;;;;5107064;28;19927;-74
2021/10/09 10:00:17;;;;;;;;;;;11.50;99.90;;;;;;5097642;28;19931;-74
2021/10/09 10:02:44;;;;;;;;;;;11.70;99.90;;;;;;5095084;28;20447;-73
2021/10/09 10:05:12;;;;;;;;;;;11.60;99.90;;;;;;5105641;28;19989;-73
2021/10/09 10:07:40;;;;;;;;;;;11.70;99.90;;;;;;5106506;28;19989;-73
2021/10/09 10:10:08;;;;;;;;;;;11.90;99.90;;;;;;5092629;28;20027;-73
2021/10/09 10:12:35;;;;;;;;;;;12.00;99.90;;;;;;5101704;28;19925;-74
2021/10/09 10:15:02;;;;;;;;;;;12.20;99.90;;;;;;5103086;28;19930;-73
2021/10/09 10:17:39;;;;;;;;;;;12.30;99.90;;;;;;5092127;28;20011;-73
2021/10/09 10:20:07;;;;;;;;;;;12.40;99.90;;;;;;5097619;28;19930;-73
2021/10/09 10:22:54;;;;;;;;;;;12.30;99.90;;;;;;5098616;28;20043;-74
2021/10/09 10:25:29;;;;;;;;;;;12.50;99.90;;;;;;5095558;28;20524;-74
2021/10/09 10:28:00;;;;;;;;;;;12.70;99.90;;;;;;5095277;28;20290;-74
2021/10/09 10:30:31;;;;;;;;;;;12.90;99.90;;;;;;5097011;28;19934;-75
2021/10/09 10:33:18;;;;;;;;;;;12.90;99.90;;;;;;5100241;28;19924;-73
2021/10/09 10:35:45;;;;;;;;;;;13.00;99.90;;;;;;5093898;28;20046;-74
2021/10/09 10:38:41;;;;;;;;;;;12.70;99.90;;;;;;5104206;27;19935;-74
2021/10/09 10:41:12;;;;;;;;;;;13.00;99.90;;;;;;5099975;27;19928;-74
2021/10/09 10:43:41;;;;;;;;;;;13.00;99.90;;;;;;5100725;28;19924;-74
2021/10/09 10:46:24;;;;;;;;;;;13.10;99.90;;;;;;5096430;28;19928;-73
2021/10/09 10:48:56;;;;;;;;;;;13.20;99.90;;;;;;5101114;28;19932;-73
2021/10/09 10:51:40;;;;;;;;;;;13.10;99.90;;;;;;5111394;28;19982;-74
2021/10/09 10:54:21;;;;;;;;;;;13.20;99.90;;;;;;5101542;28;19925;-74
2021/10/09 10:57:06;;;;;;;;;;;13.30;99.90;;;;;;5100816;27;19935;-73
2021/10/09 10:59:34;;;;;;;;;;;13.50;99.90;;;;;;5101366;27;19968;-73
2021/10/09 11:02:11;;;;;;;;;;;13.60;99.90;;;;;;5098323;28;19928;-74
2021/10/09 11:04:39;;;;;;;;;;;13.70;99.90;;;;;;5100536;28;20401;-74
2021/10/09 11:07:06;;;;;;;;;;;13.70;99.90;;;;;;5103709;28;19925;-74
2021/10/09 11:09:33;;;;;;;;;;;13.80;99.90;;;;;;5110261;27;19924;-74
2021/10/09 11:12:00;;;;;;;;;;;13.90;99.90;;;;;;5099239;27;20026;-74
2021/10/09 11:14:27;;;;;;;;;;;13.80;99.90;;;;;;5101461;27;19946;-74
2021/10/09 11:17:01;;;;;;;;;;;14.00;99.90;;;;;;5097594;28;19928;-74
2021/10/09 11:19:42;;;;;;;;;;;14.10;99.90;;;;;;5097341;28;19931;-73
2021/10/09 11:22:08;;;;;;;;;;;14.30;99.90;;;;;;5098408;28;19931;-74
2021/10/09 11:24:39;;;;;;;;;;;14.40;99.90;;;;;;5102777;28;19931;-73
2021/10/09 11:27:06;;;;;;;;;;;14.40;99.90;;;;;;5096414;28;19928;-74
2021/10/09 11:29:33;;;;;;;;;;;14.40;99.90;;;;;;5099205;28;20392;-74
2021/10/09 11:32:02;;;;;;;;;;;14.50;99.90;;;;;;5091627;28;20400;-73
2021/10/09 11:34:29;;;;;;;;;;;14.70;99.90;;;;;;5092889;28;19930;-73
2021/10/09 11:36:56;;;;;;;;;;;14.80;99.90;;;;;;5095677;27;19938;-74
2021/10/09 11:39:26;;;;;;;;;;;15.00;99.90;;;;;;5100870;28;19930;-74
2021/10/09 11:42:02;;;;;;;;;;;14.90;99.90;;;;;;5100239;28;19924;-74
2021/10/09 11:44:33;;;;;;;;;;;15.00;99.90;;;;;;5094482;28;19924;-74
2021/10/09 11:55:33;;;;;;;;;;;15.30;99.90;;;;;;5090519;28;19946;-74
2021/10/09 11:58:02;;;;;;;;;;;15.60;99.90;;;;;;5095697;28;20404;-74
2021/10/09 12:00:39;;;;;;;;;;;15.70;99.90;;;;;;5097654;28;20015;-73
2021/10/09 12:03:20;;;;;;;;;;;15.90;99.90;;;;;;5095753;28;19932;-74
2021/10/09 12:05:53;;;;;;;;;;;16.10;99.90;;;;;;5095746;28;19931;-74
2021/10/09 12:08:24;;;;;;;;;;;15.90;99.90;;;;;;5091779;28;19978;-73
2021/10/09 12:11:10;;;;;;;;;;;15.70;99.90;;;;;;5103391;28;19930;-73
2021/10/09 12:13:50;;;;;;;;;;;15.60;99.90;;;;;;5099567;28;20021;-74
2021/10/09 12:16:18;;;;;;;;;;;15.40;99.90;;;;;;5098469;28;19932;-73
2021/10/09 12:18:48;;;;;;;;;;;15.60;99.90;;;;;;5096102;28;20366;-73
2021/10/09 12:21:16;;;;;;;;;;;15.90;99.90;;;;;;5097494;28;19924;-73
2021/10/09 12:23:43;;;;;;;;;;;16.10;99.90;;;;;;5097386;28;20010;-73
2021/10/09 12:26:11;;;;;;;;;;;16.40;99.90;;;;;;5094288;28;19990;-75
2021/10/09 12:28:52;;;;;;;;;;;16.30;99.90;;;;;;5093066;28;19934;-74
2021/10/09 12:31:26;;;;;;;;;;;16.30;99.90;;;;;;5103624;27;19938;-73
2021/10/09 12:33:53;;;;;;;;;;;16.30;98.80;;;;;;5097115;28;19924;-73
2021/10/09 12:36:30;;;;;;;;;;;16.30;98.80;;;;;;5094322;28;20386;-73
2021/10/09 12:38:57;;;;;;;;;;;16.40;99.60;;;;;;5101075;27;20376;-73
2021/10/09 12:41:23;;;;;;;;;;;16.50;99.90;;;;;;5105283;27;19928;-73
2021/10/09 12:43:53;;;;;;;;;;;16.70;99.40;;;;;;5093587;28;19924;-73
2021/10/09 12:46:20;;;;;;;;;;;16.70;98.60;;;;;;5088482;28;19928;-73
2021/10/09 12:48:47;;;;;;;;;;;17.00;97.10;;;;;;5092692;28;19971;-73
2021/10/09 12:51:13;;;;;;;;;;;17.00;95.70;;;;;;5095605;28;19953;-73
2021/10/09 12:53:41;;;;;;;;;;;17.10;95.50;;;;;;5096480;28;20106;-75
2021/10/09 12:56:09;;;;;;;;;;;17.20;95.60;;;;;;5092893;28;19924;-74
2021/10/09 12:58:36;;;;;;;;;;;17.00;95.30;;;;;;5095612;28;20432;-74
2021/10/09 13:01:04;;;;;;;;;;;16.60;95.30;;;;;;5092790;28;20011;-74
2021/10/09 13:03:31;;;;;;;;;;;16.80;95.40;;;;;;5097929;28;19985;-75
2021/10/09 13:05:57;;;;;;;;;;;17.00;95.10;;;;;;5095214;28;20028;-74
2021/10/09 13:08:24;;;;;;;;;;;17.20;94.50;;;;;;5093014;28;19934;-73
2021/10/09 13:10:54;;;;;;;;;;;17.20;93.60;;;;;;5096843;28;19924;-75
2021/10/09 13:13:20;;;;;;;;;;;17.30;93.60;;;;;;5094965;28;19983;-74
2021/10/09 13:15:47;;;;;;;;;;;17.20;92.60;;;;;;5098152;28;20375;-74
2021/10/09 13:18:14;;;;;;;;;;;17.00;93.40;;;;;;5094370;28;20386;-74
2021/10/09 13:20:40;;;;;;;;;;;17.20;92.70;;;;;;5100932;28;19923;-74
2021/10/09 13:23:15;;;;;;;;;;;17.50;92.40;;;;;;5094304;28;20379;-77
2021/10/09 13:25:42;;;;;;;;;;;17.40;91.30;;;;;;5092974;28;19964;-75
2021/10/09 13:28:10;;;;;;;;;;;17.60;92.10;;;;;;5097342;28;19928;-74
2021/10/09 13:30:37;;;;;;;;;;;17.60;91.00;;;;;;5093540;28;19923;-72
2021/10/09 13:33:04;;;;;;;;;;;17.30;90.20;;;;;;5096828;28;19934;-73
2021/10/09 13:35:30;;;;;;;;;;;17.00;90.30;;;;;;5095684;28;20020;-74
2021/10/09 13:38:02;;;;;;;;;;;17.30;90.80;;;;;;5092333;28;20026;-74
2021/10/09 13:40:29;;;;;;;;;;;17.30;89.20;;;;;;5089720;28;19931;-74
2021/10/09 13:42:56;;;;;;;;;;;17.10;87.30;;;;;;5094617;28;19924;-74
2021/10/09 13:45:24;;;;;;;;;;;17.40;90.30;;;;;;5103720;28;19928;-75
2021/10/09 13:47:50;;;;;;;;;;;17.70;88.50;;;;;;5095840;28;19930;-75
2021/10/09 13:50:18;;;;;;;;;;;17.90;88.60;;;;;;5102474;28;19924;-74
2021/10/09 13:52:44;;;;;;;;;;;17.80;90.20;;;;;;5094058;28;19924;-74
2021/10/09 13:55:11;;;;;;;;;;;17.50;82.20;;;;;;5102591;28;20178;-74
2021/10/09 13:57:38;;;;;;;;;;;17.30;81.80;;;;;;5097652;28;19924;-74
2021/10/09 14:00:05;;;;;;;;;;;17.40;81.60;;;;;;5099601;28;20010;-74
2021/10/09 14:02:35;;;;;;;;;;;17.60;81.70;;;;;;5096751;28;20040;-74
2021/10/09 14:05:02;;;;;;;;;;;17.80;80.90;;;;;;5106462;28;20543;-75
2021/10/09 14:07:28;;;;;;;;;;;17.90;78.60;;;;;;5109251;27;19923;-75
2021/10/09 14:09:55;;;;;;;;;;;18.00;76.50;;;;;;5099905;27;20438;-76
2021/10/09 14:12:22;;;;;;;;;;;18.00;77.50;;;;;;5096683;28;20020;-75
2021/10/09 14:14:48;;;;;;;;;;;17.70;81.20;;;;;;5101807;28;19924;-74
2021/10/09 14:17:15;;;;;;;;;;;17.50;80.30;;;;;;5104328;28;19924;-74
2021/10/09 14:19:43;;;;;;;;;;;17.30;80.60;;;;;;5102168;28;19931;-73
2021/10/09 14:22:10;;;;;;;;;;;17.50;83.20;;;;;;5094399;28;19928;-74
2021/10/09 14:24:36;;;;;;;;;;;17.50;83.60;;;;;;5101717;28;19938;-74
2021/10/09 14:27:03;;;;;;;;;;;17.60;84.60;;;;;;5101856;28;19924;-74
2021/10/09 14:29:30;;;;;;;;;;;17.70;82.90;;;;;;5098401;28;20014;-74
2021/10/09 14:31:57;;;;;;;;;;;17.60;82.60;;;;;;5104100;27;19928;-74
2021/10/09 14:34:23;;;;;;;;;;;17.70;87.50;;;;;;5104995;28;19931;-74
2021/10/09 14:36:51;;;;;;;;;;;17.40;82.10;;;;;;5108838;28;19924;-73
2021/10/09 14:39:18;;;;;;;;;;;17.40;82.60;;;;;;5111543;28;19930;-74
2021/10/09 14:41:45;;;;;;;;;;;17.40;80.70;;;;;;5114867;28;19928;-74
2021/10/09 14:44:11;;;;;;;;;;;17.30;83.60;;;;;;5113170;28;19934;-74
2021/10/09 14:47:16;;;;;;;;;;;17.40;82.30;;;;;;5114942;28;20022;-74
2021/10/09 14:49:47;;;;;;;;;;;17.30;86.60;;;;;;5105731;28;19931;-75
2021/10/09 14:52:27;;;;;;;;;;;17.30;89.60;;;;;;5107829;27;19928;-74
2021/10/09 14:55:07;;;;;;;;;;;17.30;81.40;;;;;;5101737;28;19924;-74
2021/10/09 15:19:24;;;;;;;;;;;16.70;87.30;;;;;;5063307;27;19932;-75
2021/10/09 15:21:51;;;;;;;;;;;16.70;87.20;;;;;;5110215;27;19924;-75
2021/10/09 15:24:19;;;;;;;;;;;16.80;88.00;;;;;;5101281;27;19924;-75
2021/10/09 15:26:46;;;;;;;;;;;16.80;89.00;;;;;;5084345;28;19924;-75
2021/10/09 15:29:12;;;;;;;;;;;16.80;88.30;;;;;;5093380;27;20019;-75
2021/10/09 15:31:39;;;;;;;;;;;16.80;89.10;;;;;;5110449;27;19932;-75
2021/10/09 15:34:06;;;;;;;;;;;16.70;86.70;;;;;;5097101;27;20055;-75
2021/10/09 15:36:32;;;;;;;;;;;16.70;89.10;;;;;;5103664;27;20010;-75
2021/10/09 15:38:59;;;;;;;;;;;16.70;90.10;;;;;;5099493;27;19932;-75
2021/10/09 15:41:28;;;;;;;;;;;16.60;88.60;;;;;;5106037;27;19928;-75
2021/10/09 15:43:54;;;;;;;;;;;16.60;87.50;;;;;;5096884;27;19931;-74
2021/10/09 15:46:21;;;;;;;;;;;16.60;86.00;;;;;;5100297;27;19928;-75
2021/10/09 15:48:48;;;;;;;;;;;16.60;88.10;;;;;;5100523;27;20046;-75
2021/10/09 15:51:15;;;;;;;;;;;16.50;87.30;;;;;;5101704;27;19934;-75
2021/10/09 15:53:41;;;;;;;;;;;16.50;87.30;;;;;;5103505;27;20047;-75
2021/10/09 15:56:08;;;;;;;;;;;16.60;88.10;;;;;;5094430;28;20367;-75
2021/10/09 15:58:36;;;;;;;;;;;16.50;89.10;;;;;;5089476;28;20522;-75
2021/10/09 16:01:03;;;;;;;;;;;16.50;88.70;;;;;;5101991;27;19967;-75
2021/10/09 16:03:29;;;;;;;;;;;16.50;89.70;;;;;;5104208;27;19930;-75
2021/10/09 16:05:56;;;;;;;;;;;16.40;89.80;;;;;;5098125;28;19931;-76
2021/10/09 16:08:22;;;;;;;;;;;16.30;90.60;;;;;;5104619;27;20310;-75
2021/10/09 16:10:49;;;;;;;;;;;16.30;90.60;;;;;;5097827;27;20010;-75
2021/10/09 16:13:21;;;;;;;;;;;16.20;91.40;;;;;;5109454;27;19924;-75
2021/10/09 16:15:49;;;;;;;;;;;16.10;92.30;;;;;;5096515;27;19928;-75
2021/10/09 16:18:16;;;;;;;;;;;16.00;92.90;;;;;;5098758;27;19924;-75
2021/10/09 16:20:43;;;;;;;;;;;16.00;93.40;;;;;;5102911;28;20461;-75
2021/10/09 16:23:09;;;;;;;;;;;15.90;93.40;;;;;;5099401;27;20386;-75
2021/10/09 16:25:36;;;;;;;;;;;15.80;94.50;;;;;;5095092;27;19943;-75
2021/10/09 16:28:03;;;;;;;;;;;15.70;95.70;;;;;;5101607;27;20394;-76
2021/10/09 16:30:29;;;;;;;;;;;15.50;97.10;;;;;;5098200;27;19931;-75
2021/10/09 16:32:57;;;;;;;;;;;15.40;97.20;;;;;;5106937;27;19928;-75